KCMX

Houghton County Memorial Airport

Airport
ICAO code
KCMX
IATA Code
CMX
Summary
ICAO Region
NAM
ICAO Territory
Location

Calumet, Michigan

Serving
Houghton County
Elevation
1095 ft
Coordinates
47° 10' 6" N , 88° 29' 20" W
KCC
Airport CFIT
Altimeter Temperature Error Correction
Airport WX
Lake Effect Snow
Metar
KCMX 202153Z AUTO 08005KT 10SM OVC100 06/M02 A2991 RMK AO2 SLP141 T00561022

Houghton County Memorial Airport is a public use airport located 4 nm southwest of the central business district of Calumet, a village in Houghton County, Michigan, USA.

Airport map

Aerial View

SKYbrary Partners:

Safety knowledge contributed by: